sensor_id;sensor_type;location;lat;lon;timestamp;pressure;altitude;pressure_sealevel;temperature;humidity
49102;BME280;34913;47.520;19.186;2022-12-26T00:01:32;100466.19;;;7.30;96.46
49102;BME280;34913;47.520;19.186;2022-12-26T00:03:59;100476.06;;;7.26;96.81
49102;BME280;34913;47.520;19.186;2022-12-26T00:06:26;100479.56;;;7.26;97.15
49102;BME280;34913;47.520;19.186;2022-12-26T00:08:52;100479.84;;;7.22;97.46
49102;BME280;34913;47.520;19.186;2022-12-26T00:11:19;100476.84;;;7.28;97.47
49102;BME280;34913;47.520;19.186;2022-12-26T00:13:45;100470.88;;;7.24;97.44
49102;BME280;34913;47.520;19.186;2022-12-26T00:16:16;100478.53;;;7.29;97.22
49102;BME280;34913;47.520;19.186;2022-12-26T00:18:42;100464.13;;;7.35;96.91
49102;BME280;34913;47.520;19.186;2022-12-26T00:21:09;100465.50;;;7.26;97.17
49102;BME280;34913;47.520;19.186;2022-12-26T00:23:35;100463.81;;;7.25;97.07
49102;BME280;34913;47.520;19.186;2022-12-26T00:26:11;100467.50;;;7.22;97.25
49102;BME280;34913;47.520;19.186;2022-12-26T00:28:37;100464.38;;;7.16;97.88
49102;BME280;34913;47.520;19.186;2022-12-26T00:31:09;100462.94;;;7.10;98.50
49102;BME280;34913;47.520;19.186;2022-12-26T00:33:35;100462.19;;;7.08;98.78
49102;BME280;34913;47.520;19.186;2022-12-26T00:36:07;100455.59;;;7.01;98.71
49102;BME280;34913;47.520;19.186;2022-12-26T00:38:34;100450.63;;;6.96;99.07
49102;BME280;34913;47.520;19.186;2022-12-26T00:40:59;100449.19;;;6.91;99.61
49102;BME280;34913;47.520;19.186;2022-12-26T00:43:25;100457.91;;;6.77;100.00
49102;BME280;34913;47.520;19.186;2022-12-26T00:45:50;100464.22;;;6.75;100.00
49102;BME280;34913;47.520;19.186;2022-12-26T00:48:16;100465.19;;;6.74;100.00
49102;BME280;34913;47.520;19.186;2022-12-26T00:50:42;100454.59;;;6.59;100.00
49102;BME280;34913;47.520;19.186;2022-12-26T00:53:07;100466.38;;;6.68;100.00
49102;BME280;34913;47.520;19.186;2022-12-26T00:55:33;100468.16;;;6.67;100.00
49102;BME280;34913;47.520;19.186;2022-12-26T00:57:58;100476.84;;;6.69;100.00
49102;BME280;34913;47.520;19.186;2022-12-26T01:00:23;100473.81;;;6.61;100.00
49102;BME280;34913;47.520;19.186;2022-12-26T01:02:49;100479.44;;;6.55;100.00
49102;BME280;34913;47.520;19.186;2022-12-26T01:05:15;100467.19;;;6.54;100.00
49102;BME280;34913;47.520;19.186;2022-12-26T01:07:40;100470.75;;;6.53;100.00
49102;BME280;34913;47.520;19.186;2022-12-26T01:10:09;100459.72;;;6.47;100.00
49102;BME280;34913;47.520;19.186;2022-12-26T01:12:36;100455.28;;;6.47;100.00
49102;BME280;34913;47.520;19.186;2022-12-26T01:15:02;100447.31;;;6.49;100.00
49102;BME280;34913;47.520;19.186;2022-12-26T01:17:27;100439.66;;;6.44;100.00
49102;BME280;34913;47.520;19.186;2022-12-26T01:19:54;100430.66;;;6.48;100.00
49102;BME280;34913;47.520;19.186;2022-12-26T01:22:20;100446.63;;;6.45;100.00
49102;BME280;34913;47.520;19.186;2022-12-26T01:24:45;100450.00;;;6.33;100.00
49102;BME280;34913;47.520;19.186;2022-12-26T01:27:11;100445.16;;;6.25;100.00
49102;BME280;34913;47.520;19.186;2022-12-26T01:29:36;100443.38;;;6.26;100.00
49102;BME280;34913;47.520;19.186;2022-12-26T01:32:02;100450.59;;;6.22;100.00
49102;BME280;34913;47.520;19.186;2022-12-26T01:34:28;100442.59;;;6.24;100.00
49102;BME280;34913;47.520;19.186;2022-12-26T01:36:53;100423.38;;;6.22;100.00
49102;BME280;34913;47.520;19.186;2022-12-26T01:39:19;100426.03;;;6.22;100.00
49102;BME280;34913;47.520;19.186;2022-12-26T01:41:45;100442.53;;;6.25;100.00
49102;BME280;34913;47.520;19.186;2022-12-26T01:47:14;100441.78;;;6.07;100.00
49102;BME280;34913;47.520;19.186;2022-12-26T01:49:42;100440.06;;;6.06;100.00
49102;BME280;34913;47.520;19.186;2022-12-26T01:52:14;100432.88;;;5.94;100.00
49102;BME280;34913;47.520;19.186;2022-12-26T01:54:44;100424.53;;;6.02;100.00
49102;BME280;34913;47.520;19.186;2022-12-26T01:57:17;100432.06;;;6.08;100.00
49102;BME280;34913;47.520;19.186;2022-12-26T01:59:46;100422.22;;;6.11;100.00
49102;BME280;34913;47.520;19.186;2022-12-26T02:02:14;100421.19;;;6.14;100.00
49102;BME280;34913;47.520;19.186;2022-12-26T02:04:45;100409.50;;;6.04;100.00
49102;BME280;34913;47.520;19.186;2022-12-26T02:07:32;100410.25;;;6.06;100.00
49102;BME280;34913;47.520;19.186;2022-12-26T02:09:58;100415.25;;;6.10;100.00
49102;BME280;34913;47.520;19.186;2022-12-26T02:14:52;100416.97;;;6.11;100.00
49102;BME280;34913;47.520;19.186;2022-12-26T02:17:18;100411.00;;;6.08;100.00
49102;BME280;34913;47.520;19.186;2022-12-26T02:19:56;100417.06;;;6.10;100.00
49102;BME280;34913;47.520;19.186;2022-12-26T02:33:30;100426.22;;;5.71;100.00
49102;BME280;34913;47.520;19.186;2022-12-26T02:44:39;100397.34;;;5.85;100.00
49102;BME280;34913;47.520;19.186;2022-12-26T02:47:47;100383.66;;;5.79;100.00
49102;BME280;34913;47.520;19.186;2022-12-26T02:54:04;100345.16;;;5.76;100.00
49102;BME280;34913;47.520;19.186;2022-12-26T02:56:56;100357.75;;;5.71;100.00
49102;BME280;34913;47.520;19.186;2022-12-26T03:00:07;100362.72;;;5.62;100.00
49102;BME280;34913;47.520;19.186;2022-12-26T03:02:54;100355.66;;;5.46;100.00
49102;BME280;34913;47.520;19.186;2022-12-26T03:05:46;100375.44;;;5.53;100.00
49102;BME280;34913;47.520;19.186;2022-12-26T03:08:35;100377.19;;;5.69;100.00
49102;BME280;34913;47.520;19.186;2022-12-26T03:11:25;100391.72;;;5.76;100.00
49102;BME280;34913;47.520;19.186;2022-12-26T03:14:20;100383.69;;;5.63;100.00
49102;BME280;34913;47.520;19.186;2022-12-26T03:16:51;100387.06;;;5.49;100.00
49102;BME280;34913;47.520;19.186;2022-12-26T03:19:39;100393.00;;;5.53;100.00
49102;BME280;34913;47.520;19.186;2022-12-26T03:22:23;100399.91;;;5.55;100.00
49102;BME280;34913;47.520;19.186;2022-12-26T03:24:57;100403.47;;;5.54;100.00
49102;BME280;34913;47.520;19.186;2022-12-26T03:27:42;100387.59;;;5.40;100.00
49102;BME280;34913;47.520;19.186;2022-12-26T03:30:08;100393.34;;;5.15;100.00
49102;BME280;34913;47.520;19.186;2022-12-26T03:32:54;100397.06;;;5.11;100.00
49102;BME280;34913;47.520;19.186;2022-12-26T03:35:22;100393.25;;;5.17;100.00
49102;BME280;34913;47.520;19.186;2022-12-26T03:37:52;100393.16;;;5.18;100.00
49102;BME280;34913;47.520;19.186;2022-12-26T03:46:59;100409.38;;;5.26;100.00
49102;BME280;34913;47.520;19.186;2022-12-26T03:49:51;100397.06;;;5.27;100.00
49102;BME280;34913;47.520;19.186;2022-12-26T03:55:57;100397.81;;;5.29;100.00
49102;BME280;34913;47.520;19.186;2022-12-26T03:58:53;100405.69;;;5.13;100.00
49102;BME280;34913;47.520;19.186;2022-12-26T04:01:41;100399.69;;;5.11;100.00
49102;BME280;34913;47.520;19.186;2022-12-26T04:04:28;100392.63;;;5.12;100.00
49102;BME280;34913;47.520;19.186;2022-12-26T04:07:19;100377.53;;;4.99;100.00
49102;BME280;34913;47.520;19.186;2022-12-26T04:10:09;100399.41;;;5.00;100.00
49102;BME280;34913;47.520;19.186;2022-12-26T04:12:55;100406.50;;;4.82;100.00
49102;BME280;34913;47.520;19.186;2022-12-26T04:15:55;100425.38;;;4.90;100.00
49102;BME280;34913;47.520;19.186;2022-12-26T04:19:16;100430.47;;;4.76;100.00
49102;BME280;34913;47.520;19.186;2022-12-26T04:27:51;100421.25;;;4.85;100.00
49102;BME280;34913;47.520;19.186;2022-12-26T04:30:37;100413.81;;;4.93;100.00
49102;BME280;34913;47.520;19.186;2022-12-26T04:33:27;100412.78;;;4.95;100.00
49102;BME280;34913;47.520;19.186;2022-12-26T04:36:16;100418.38;;;4.89;100.00
49102;BME280;34913;47.520;19.186;2022-12-26T04:39:05;100414.91;;;4.89;100.00
49102;BME280;34913;47.520;19.186;2022-12-26T04:41:55;100391.25;;;4.71;100.00
49102;BME280;34913;47.520;19.186;2022-12-26T04:44:40;100416.63;;;4.72;100.00
49102;BME280;34913;47.520;19.186;2022-12-26T04:47:06;100409.66;;;4.71;100.00
49102;BME280;34913;47.520;19.186;2022-12-26T04:49:40;100407.81;;;4.73;100.00
49102;BME280;34913;47.520;19.186;2022-12-26T04:52:25;100401.88;;;4.70;100.00
49102;BME280;34913;47.520;19.186;2022-12-26T04:55:10;100398.41;;;4.69;100.00
49102;BME280;34913;47.520;19.186;2022-12-26T04:57:35;100394.66;;;4.73;100.00
49102;BME280;34913;47.520;19.186;2022-12-26T05:00:01;100391.34;;;4.70;100.00
49102;BME280;34913;47.520;19.186;2022-12-26T05:02:26;100395.59;;;4.72;100.00
49102;BME280;34913;47.520;19.186;2022-12-26T05:05:10;100391.03;;;4.76;100.00
49102;BME280;34913;47.520;19.186;2022-12-26T05:07:54;100400.38;;;4.82;100.00
49102;BME280;34913;47.520;19.186;2022-12-26T05:10:38;100395.28;;;4.79;100.00
49102;BME280;34913;47.520;19.186;2022-12-26T05:13:04;100388.25;;;4.79;100.00
49102;BME280;34913;47.520;19.186;2022-12-26T05:15:29;100391.63;;;4.81;100.00
49102;BME280;34913;47.520;19.186;2022-12-26T05:18:14;100395.91;;;4.84;100.00
49102;BME280;34913;47.520;19.186;2022-12-26T05:21:01;100413.78;;;4.77;100.00
49102;BME280;34913;47.520;19.186;2022-12-26T05:23:45;100407.88;;;4.72;100.00
49102;BME280;34913;47.520;19.186;2022-12-26T05:26:29;100396.59;;;4.70;100.00
49102;BME280;34913;47.520;19.186;2022-12-26T05:29:13;100395.94;;;4.66;100.00
49102;BME280;34913;47.520;19.186;2022-12-26T05:31:38;100396.00;;;4.65;100.00
49102;BME280;34913;47.520;19.186;2022-12-26T05:34:04;100393.16;;;4.52;100.00
49102;BME280;34913;47.520;19.186;2022-12-26T05:36:37;100389.16;;;4.45;100.00
49102;BME280;34913;47.520;19.186;2022-12-26T05:39:03;100378.75;;;4.42;100.00
49102;BME280;34913;47.520;19.186;2022-12-26T05:41:29;100365.56;;;4.43;100.00
49102;BME280;34913;47.520;19.186;2022-12-26T05:43:54;100360.22;;;4.45;100.00
49102;BME280;34913;47.520;19.186;2022-12-26T05:46:20;100363.72;;;4.45;100.00
49102;BME280;34913;47.520;19.186;2022-12-26T05:48:45;100365.03;;;4.37;100.00
49102;BME280;34913;47.520;19.186;2022-12-26T05:51:10;100359.06;;;4.33;100.00
49102;BME280;34913;47.520;19.186;2022-12-26T05:53:36;100370.69;;;4.29;100.00
49102;BME280;34913;47.520;19.186;2022-12-26T05:56:06;100389.06;;;4.29;100.00
49102;BME280;34913;47.520;19.186;2022-12-26T05:58:32;100394.88;;;4.36;100.00
49102;BME280;34913;47.520;19.186;2022-12-26T06:01:05;100396.19;;;4.44;100.00
49102;BME280;34913;47.520;19.186;2022-12-26T06:03:32;100393.75;;;4.57;100.00
49102;BME280;34913;47.520;19.186;2022-12-26T06:05:58;100393.34;;;4.65;100.00
49102;BME280;34913;47.520;19.186;2022-12-26T06:08:23;100396.91;;;4.64;100.00
49102;BME280;34913;47.520;19.186;2022-12-26T06:10:48;100395.13;;;4.64;100.00
49102;BME280;34913;47.520;19.186;2022-12-26T06:13:14;100399.56;;;4.64;100.00
49102;BME280;34913;47.520;19.186;2022-12-26T06:15:39;100388.44;;;4.59;100.00
49102;BME280;34913;47.520;19.186;2022-12-26T06:18:04;100389.03;;;4.64;100.00
49102;BME280;34913;47.520;19.186;2022-12-26T06:20:30;100364.00;;;4.57;100.00
49102;BME280;34913;47.520;19.186;2022-12-26T06:22:56;100374.38;;;4.60;100.00
49102;BME280;34913;47.520;19.186;2022-12-26T06:25:22;100366.56;;;4.58;100.00
49102;BME280;34913;47.520;19.186;2022-12-26T06:27:47;100369.59;;;4.51;100.00
49102;BME280;34913;47.520;19.186;2022-12-26T06:30:13;100368.88;;;4.47;100.00
49102;BME280;34913;47.520;19.186;2022-12-26T06:32:38;100367.94;;;4.48;100.00
49102;BME280;34913;47.520;19.186;2022-12-26T06:35:04;100356.97;;;4.40;100.00
49102;BME280;34913;47.520;19.186;2022-12-26T06:37:29;100374.22;;;4.45;100.00
49102;BME280;34913;47.520;19.186;2022-12-26T06:39:56;100371.13;;;4.55;100.00
49102;BME280;34913;47.520;19.186;2022-12-26T06:42:21;100379.84;;;4.55;100.00
49102;BME280;34913;47.520;19.186;2022-12-26T06:44:47;100379.22;;;4.50;100.00
49102;BME280;34913;47.520;19.186;2022-12-26T06:47:12;100377.38;;;4.52;100.00
49102;BME280;34913;47.520;19.186;2022-12-26T06:49:38;100378.16;;;4.54;100.00
49102;BME280;34913;47.520;19.186;2022-12-26T06:52:03;100380.56;;;4.59;100.00
49102;BME280;34913;47.520;19.186;2022-12-26T06:54:28;100377.22;;;4.55;100.00
49102;BME280;34913;47.520;19.186;2022-12-26T06:56:54;100375.84;;;4.48;100.00
49102;BME280;34913;47.520;19.186;2022-12-26T06:59:19;100375.38;;;4.40;100.00
49102;BME280;34913;47.520;19.186;2022-12-26T07:01:45;100375.91;;;4.46;100.00
49102;BME280;34913;47.520;19.186;2022-12-26T07:04:12;100373.75;;;4.55;100.00
49102;BME280;34913;47.520;19.186;2022-12-26T07:06:37;100377.97;;;4.57;100.00
49102;BME280;34913;47.520;19.186;2022-12-26T07:09:06;100376.28;;;4.56;100.00
49102;BME280;34913;47.520;19.186;2022-12-26T07:11:34;100381.31;;;4.61;100.00
49102;BME280;34913;47.520;19.186;2022-12-26T07:14:01;100397.16;;;4.76;100.00
49102;BME280;34913;47.520;19.186;2022-12-26T07:16:26;100402.84;;;4.85;100.00
49102;BME280;34913;47.520;19.186;2022-12-26T07:18:53;100398.97;;;4.92;100.00
49102;BME280;34913;47.520;19.186;2022-12-26T07:21:20;100407.63;;;4.94;100.00
49102;BME280;34913;47.520;19.186;2022-12-26T07:23:45;100413.13;;;4.89;100.00
49102;BME280;34913;47.520;19.186;2022-12-26T07:26:11;100399.91;;;4.91;100.00
49102;BME280;34913;47.520;19.186;2022-12-26T07:28:36;100412.03;;;4.93;100.00
49102;BME280;34913;47.520;19.186;2022-12-26T07:31:02;100413.84;;;5.09;100.00
49102;BME280;34913;47.520;19.186;2022-12-26T07:33:29;100414.19;;;5.02;100.00
49102;BME280;34913;47.520;19.186;2022-12-26T07:36:02;100420.03;;;4.92;100.00
49102;BME280;34913;47.520;19.186;2022-12-26T07:38:28;100409.28;;;4.79;100.00
49102;BME280;34913;47.520;19.186;2022-12-26T07:40:55;100409.09;;;4.66;100.00
49102;BME280;34913;47.520;19.186;2022-12-26T07:43:21;100420.84;;;4.59;100.00
49102;BME280;34913;47.520;19.186;2022-12-26T07:45:46;100426.41;;;4.53;100.00
49102;BME280;34913;47.520;19.186;2022-12-26T07:48:12;100418.03;;;4.62;100.00
49102;BME280;34913;47.520;19.186;2022-12-26T07:50:37;100425.69;;;4.67;100.00
49102;BME280;34913;47.520;19.186;2022-12-26T07:53:03;100430.47;;;4.76;100.00
49102;BME280;34913;47.520;19.186;2022-12-26T07:55:28;100423.44;;;4.76;100.00
49102;BME280;34913;47.520;19.186;2022-12-26T07:57:53;100414.72;;;4.76;100.00
49102;BME280;34913;47.520;19.186;2022-12-26T08:00:19;100418.09;;;4.78;100.00
49102;BME280;34913;47.520;19.186;2022-12-26T08:02:49;100414.91;;;4.89;100.00
49102;BME280;34913;47.520;19.186;2022-12-26T08:05:15;100426.13;;;4.92;100.00
49102;BME280;34913;47.520;19.186;2022-12-26T08:07:41;100421.09;;;4.88;100.00
49102;BME280;34913;47.520;19.186;2022-12-26T08:10:07;100417.69;;;4.86;100.00
49102;BME280;34913;47.520;19.186;2022-12-26T08:12:33;100413.81;;;4.93;100.00
49102;BME280;34913;47.520;19.186;2022-12-26T08:14:58;100391.31;;;4.87;100.00
49102;BME280;34913;47.520;19.186;2022-12-26T08:17:24;100414.78;;;5.08;100.00
49102;BME280;34913;47.520;19.186;2022-12-26T08:19:49;100435.25;;;5.18;100.00
49102;BME280;34913;47.520;19.186;2022-12-26T08:22:15;100440.97;;;5.26;100.00
49102;BME280;34913;47.520;19.186;2022-12-26T08:24:40;100442.16;;;5.37;100.00
49102;BME280;34913;47.520;19.186;2022-12-26T08:27:05;100437.59;;;5.40;100.00
49102;BME280;34913;47.520;19.186;2022-12-26T08:29:31;100438.53;;;5.39;100.00
49102;BME280;34913;47.520;19.186;2022-12-26T08:31:56;100435.28;;;5.34;100.00
49102;BME280;34913;47.520;19.186;2022-12-26T08:34:22;100449.72;;;5.43;100.00
49102;BME280;34913;47.520;19.186;2022-12-26T08:36:50;100451.72;;;5.55;100.00
49102;BME280;34913;47.520;19.186;2022-12-26T08:39:16;100445.00;;;5.65;100.00
49102;BME280;34913;47.520;19.186;2022-12-26T08:41:42;100447.88;;;5.60;100.00
49102;BME280;34913;47.520;19.186;2022-12-26T08:44:08;100462.94;;;5.74;100.00
49102;BME280;34913;47.520;19.186;2022-12-26T08:46:34;100452.91;;;5.81;100.00
49102;BME280;34913;47.520;19.186;2022-12-26T08:48:59;100448.47;;;5.81;100.00
49102;BME280;34913;47.520;19.186;2022-12-26T08:51:25;100457.09;;;5.85;100.00
49102;BME280;34913;47.520;19.186;2022-12-26T08:53:52;100451.81;;;5.85;100.00
49102;BME280;34913;47.520;19.186;2022-12-26T08:56:20;100446.88;;;5.79;100.00
49102;BME280;34913;47.520;19.186;2022-12-26T08:58:46;100446.59;;;5.83;100.00
49102;BME280;34913;47.520;19.186;2022-12-26T09:01:14;100453.97;;;5.94;100.00
49102;BME280;34913;47.520;19.186;2022-12-26T09:03:40;100453.94;;;6.10;100.00
49102;BME280;34913;47.520;19.186;2022-12-26T09:06:07;100455.44;;;6.14;100.00
49102;BME280;34913;47.520;19.186;2022-12-26T09:08:33;100452.72;;;6.15;100.00
49102;BME280;34913;47.520;19.186;2022-12-26T09:11:20;100440.16;;;6.05;100.00
49102;BME280;34913;47.520;19.186;2022-12-26T09:13:46;100453.50;;;6.18;100.00
49102;BME280;34913;47.520;19.186;2022-12-26T09:16:14;100450.09;;;6.15;100.00
49102;BME280;34913;47.520;19.186;2022-12-26T09:18:40;100445.75;;;6.14;100.00
49102;BME280;34913;47.520;19.186;2022-12-26T09:21:08;100432.69;;;6.13;100.00
49102;BME280;34913;47.520;19.186;2022-12-26T09:23:34;100436.47;;;6.23;100.00
49102;BME280;34913;47.520;19.186;2022-12-26T09:26:09;100453.38;;;6.35;100.00
49102;BME280;34913;47.520;19.186;2022-12-26T09:28:35;100449.47;;;6.42;100.00
49102;BME280;34913;47.520;19.186;2022-12-26T09:31:03;100453.59;;;6.46;100.00
49102;BME280;34913;47.520;19.186;2022-12-26T09:33:30;100457.06;;;6.47;100.00
49102;BME280;34913;47.520;19.186;2022-12-26T09:35:57;100447.31;;;6.49;100.00
49102;BME280;34913;47.520;19.186;2022-12-26T09:38:23;100449.75;;;6.52;100.00
49102;BME280;34913;47.520;19.186;2022-12-26T09:41:15;100452.41;;;6.52;100.00
49102;BME280;34913;47.520;19.186;2022-12-26T09:46:24;100460.94;;;6.41;100.00
49102;BME280;34913;47.520;19.186;2022-12-26T09:49:18;100459.72;;;6.47;100.00
49102;BME280;34913;47.520;19.186;2022-12-26T09:51:56;100444.88;;;6.60;100.00
49102;BME280;34913;47.520;19.186;2022-12-26T09:56:52;100464.53;;;6.84;100.00
49102;BME280;34913;47.520;19.186;2022-12-26T09:59:20;100456.72;;;6.83;100.00
49102;BME280;34913;47.520;19.186;2022-12-26T10:01:48;100464.28;;;6.89;100.00
49102;BME280;34913;47.520;19.186;2022-12-26T10:04:25;100460.69;;;6.90;100.00
49102;BME280;34913;47.520;19.186;2022-12-26T10:24:50;100458.94;;;7.19;100.00
49102;BME280;34913;47.520;19.186;2022-12-26T10:27:17;100451.84;;;7.19;100.00
49102;BME280;34913;47.520;19.186;2022-12-26T10:29:52;100449.41;;;7.31;100.00
49102;BME280;34913;47.520;19.186;2022-12-26T10:32:31;100439.66;;;7.45;100.00
49102;BME280;34913;47.520;19.186;2022-12-26T10:34:58;100407.81;;;7.20;100.00
49102;BME280;34913;47.520;19.186;2022-12-26T10:37:34;100416.38;;;7.38;100.00
49102;BME280;34913;47.520;19.186;2022-12-26T10:42:43;100422.03;;;7.46;100.00
49102;BME280;34913;47.520;19.186;2022-12-26T10:45:19;100404.97;;;7.37;100.00
49102;BME280;34913;47.520;19.186;2022-12-26T10:47:52;100392.00;;;7.20;100.00
49102;BME280;34913;47.520;19.186;2022-12-26T10:50:19;100405.56;;;7.28;100.00
49102;BME280;34913;47.520;19.186;2022-12-26T10:52:45;100400.22;;;7.42;100.00
49102;BME280;34913;47.520;19.186;2022-12-26T10:55:16;100396.44;;;7.61;100.00
49102;BME280;34913;47.520;19.186;2022-12-26T10:57:44;100393.41;;;7.67;100.00
49102;BME280;34913;47.520;19.186;2022-12-26T11:00:23;100401.97;;;7.70;99.89
49102;BME280;34913;47.520;19.186;2022-12-26T11:03:08;100399.09;;;7.61;99.72
49102;BME280;34913;47.520;19.186;2022-12-26T11:05:39;100392.50;;;7.53;100.00
49102;BME280;34913;47.520;19.186;2022-12-26T11:08:14;100388.53;;;7.46;100.00
49102;BME280;34913;47.520;19.186;2022-12-26T11:10:43;100374.81;;;7.27;100.00
49102;BME280;34913;47.520;19.186;2022-12-26T11:13:19;100380.63;;;7.46;100.00
49102;BME280;34913;47.520;19.186;2022-12-26T11:15:48;100376.75;;;7.52;100.00
49102;BME280;34913;47.520;19.186;2022-12-26T11:18:19;100351.00;;;7.41;100.00
49102;BME280;34913;47.520;19.186;2022-12-26T11:20:46;100343.88;;;7.29;100.00
49102;BME280;34913;47.520;19.186;2022-12-26T11:23:20;100360.34;;;7.47;100.00
49102;BME280;34913;47.520;19.186;2022-12-26T11:25:48;100356.59;;;7.64;100.00
49102;BME280;34913;47.520;19.186;2022-12-26T11:30:50;100356.50;;;7.92;98.36
49102;BME280;34913;47.520;19.186;2022-12-26T11:33:25;100343.41;;;7.91;97.53
49102;BME280;34913;47.520;19.186;2022-12-26T11:38:44;100351.00;;;8.22;95.52
49102;BME280;34913;47.520;19.186;2022-12-26T11:41:30;100347.91;;;8.28;95.31
49102;BME280;34913;47.520;19.186;2022-12-26T11:44:35;100351.94;;;8.34;95.16
49102;BME280;34913;47.520;19.186;2022-12-26T11:47:08;100351.69;;;8.38;94.91
49102;BME280;34913;47.520;19.186;2022-12-26T11:49:38;100357.72;;;8.41;94.79
49102;BME280;34913;47.520;19.186;2022-12-26T11:54:55;100368.38;;;8.52;93.44
49102;BME280;34913;47.520;19.186;2022-12-26T11:57:26;100352.34;;;8.15;93.92
49102;BME280;34913;47.520;19.186;2022-12-26T11:59:52;100353.09;;;8.17;95.73
49102;BME280;34913;47.520;19.186;2022-12-26T12:02:24;100356.47;;;8.19;94.92
49102;BME280;34913;47.520;19.186;2022-12-26T12:04:53;100364.09;;;8.24;95.57
49102;BME280;34913;47.520;19.186;2022-12-26T12:13:14;100341.19;;;8.37;96.29
49102;BME280;34913;47.520;19.186;2022-12-26T12:18:52;100336.19;;;8.32;95.80
49102;BME280;34913;47.520;19.186;2022-12-26T12:32:16;100328.00;;;8.62;94.77
49102;BME280;34913;47.520;19.186;2022-12-26T12:37:30;100331.34;;;9.03;93.43
49102;BME280;34913;47.520;19.186;2022-12-26T12:53:52;100309.81;;;9.44;89.91
49102;BME280;34913;47.520;19.186;2022-12-26T13:01:38;100306.66;;;9.39;90.01
49102;BME280;34913;47.520;19.186;2022-12-26T13:04:20;100308.53;;;9.49;89.99
49102;BME280;34913;47.520;19.186;2022-12-26T13:06:52;100310.34;;;9.49;88.61
49102;BME280;34913;47.520;19.186;2022-12-26T13:09:22;100307.31;;;9.30;89.97
49102;BME280;34913;47.520;19.186;2022-12-26T13:14:18;100314.25;;;9.19;92.11
49102;BME280;34913;47.520;19.186;2022-12-26T13:16:54;100329.78;;;9.24;91.62
49102;BME280;34913;47.520;19.186;2022-12-26T13:19:25;100314.66;;;9.26;91.27
49102;BME280;34913;47.520;19.186;2022-12-26T13:21:53;100307.47;;;9.15;91.27
49102;BME280;34913;47.520;19.186;2022-12-26T13:27:10;100317.25;;;8.89;93.33
49102;BME280;34913;47.520;19.186;2022-12-26T13:29:39;100313.59;;;8.79;94.13
49102;BME280;34913;47.520;19.186;2022-12-26T13:32:21;100305.34;;;8.71;94.49
49102;BME280;34913;47.520;19.186;2022-12-26T13:34:49;100308.72;;;8.73;94.92
49102;BME280;34913;47.520;19.186;2022-12-26T13:37:52;100317.81;;;8.82;95.70
49102;BME280;34913;47.520;19.186;2022-12-26T13:40:19;100317.19;;;8.78;94.14
49102;BME280;34913;47.520;19.186;2022-12-26T13:55:59;100330.94;;;8.71;95.71
49102;BME280;34913;47.520;19.186;2022-12-26T14:28:09;100325.81;;;8.29;96.13
49102;BME280;34913;47.520;19.186;2022-12-26T14:33:34;100343.69;;;8.26;96.72
49102;BME280;34913;47.520;19.186;2022-12-26T14:38:58;100345.88;;;8.19;96.82
49102;BME280;34913;47.520;19.186;2022-12-26T14:41:27;100338.47;;;8.11;96.65
49102;BME280;34913;47.520;19.186;2022-12-26T14:54:52;100329.50;;;7.74;96.54
49102;BME280;34913;47.520;19.186;2022-12-26T15:00:23;100340.22;;;7.59;97.41
49102;BME280;34913;47.520;19.186;2022-12-26T15:05:27;100330.66;;;7.43;97.11
49102;BME280;34913;47.520;19.186;2022-12-26T15:16:17;100333.59;;;7.24;96.20
49102;BME280;34913;47.520;19.186;2022-12-26T15:22:05;100320.59;;;7.21;96.50
49102;BME280;34913;47.520;19.186;2022-12-26T15:24:55;100320.53;;;7.09;97.34
49102;BME280;34913;47.520;19.186;2022-12-26T15:28:01;100314.59;;;7.05;97.44
49102;BME280;34913;47.520;19.186;2022-12-26T15:38:22;100305.00;;;6.76;97.51
49102;BME280;34913;47.520;19.186;2022-12-26T15:43:30;100301.59;;;6.45;97.48
49102;BME280;34913;47.520;19.186;2022-12-26T15:46:15;100298.88;;;6.32;99.73
49102;BME280;34913;47.520;19.186;2022-12-26T16:01:59;100313.31;;;5.81;100.00
49102;BME280;34913;47.520;19.186;2022-12-26T16:04:35;100319.06;;;5.87;100.00
49102;BME280;34913;47.520;19.186;2022-12-26T16:09:48;100307.38;;;5.93;100.00
49102;BME280;34913;47.520;19.186;2022-12-26T16:12:22;100317.13;;;5.91;100.00
49102;BME280;34913;47.520;19.186;2022-12-26T16:14:48;100302.94;;;5.94;100.00
49102;BME280;34913;47.520;19.186;2022-12-26T16:19:42;100306.00;;;5.86;100.00
49102;BME280;34913;47.520;19.186;2022-12-26T16:22:33;100304.91;;;5.74;100.00
49102;BME280;34913;47.520;19.186;2022-12-26T16:25:19;100310.66;;;5.81;100.00
49102;BME280;34913;47.520;19.186;2022-12-26T16:27:47;100302.41;;;5.87;100.00
49102;BME280;34913;47.520;19.186;2022-12-26T16:30:25;100291.97;;;5.85;100.00
49102;BME280;34913;47.520;19.186;2022-12-26T16:32:52;100296.41;;;5.85;100.00
49102;BME280;34913;47.520;19.186;2022-12-26T16:35:21;100305.25;;;5.68;100.00
49102;BME280;34913;47.520;19.186;2022-12-26T16:37:50;100304.91;;;5.74;100.00
49102;BME280;34913;47.520;19.186;2022-12-26T16:40:23;100300.56;;;5.73;100.00
49102;BME280;34913;47.520;19.186;2022-12-26T16:43:05;100301.31;;;5.75;100.00
49102;BME280;34913;47.520;19.186;2022-12-26T16:45:35;100288.25;;;5.74;100.00
49102;BME280;34913;47.520;19.186;2022-12-26T16:48:05;100296.91;;;5.76;100.00
49102;BME280;34913;47.520;19.186;2022-12-26T16:50:33;100296.16;;;5.74;100.00
49102;BME280;34913;47.520;19.186;2022-12-26T16:53:26;100292.56;;;5.75;100.00
49102;BME280;34913;47.520;19.186;2022-12-26T16:56:26;100296.66;;;5.80;100.00
49102;BME280;34913;47.520;19.186;2022-12-26T17:01:39;100287.16;;;5.78;100.00